Hamilton, North Carolina
Current Conditions -  °F | °C
As of 9:35 PM on Friday 28 Nov 2014 (Local Time) from KETC Reporting Station
Clear Clear  
Wind Chill: 29°   Ceiling: Unl
Heat Index: 29°   Visibility: 10mi
Dew Point: 28°   Wind: 0mph
Humidity: 95%   Direction: NA
Pressure: 30.34"   Gusts: NA
Location:  35.94°N, 77.21°W
Report Text: KETC 290235Z AUTO 00000KT 10SM CLR M01/M02 A3034 RMK AO2 T10141021
Loading
Personal Weather Stations






























Interactive Weather Map New forecast layout! Learn more

10-Day Weather Forecast

Advertisements
Track Severe Weather on mobile